<?xml version="1.0" encoding="UTF-8" standalone="no" ?>
<gpx xmlns="http://www.topografix.com/GPX/1/1" xmlns:xsi="http://www.w3.org/2001/XMLSchema-instance" xsi:schemaLocation="http://www.topografix.com/GPX/1/1 http://www.topografix.com/GPX/1/1/gpx.xsd" version="1.1" creator="VisuGPX - https://www.visugpx.com">
  <metadata>
    <name>Dent d'Acrlusaz</name>
    <desc><![CDATA[Depuis le Col du Frêne par le Col du Potat.]]></desc>
  </metadata>
  <trk>
    <name><![CDATA[2019-06-29-01]]></name>
    <trkseg>
      <trkpt lat="45.58335" lon="6.13607">
        <ele>956.2</ele>
        <time>2019-06-29T06:00:07Z</time>
      </trkpt>
      <trkpt lat="45.58335" lon="6.13607">
        <ele>956.2</ele>
        <time>2019-06-29T06:00:08Z</time>
      </trkpt>
      <trkpt lat="45.5829" lon="6.13591">
        <ele>955.5</ele>
        <time>2019-06-29T06:02:04Z</time>
      </trkpt>
      <trkpt lat="45.58246" lon="6.13581">
        <ele>956.3</ele>
        <time>2019-06-29T06:02:43Z</time>
      </trkpt>
      <trkpt lat="45.5827" lon="6.13636">
        <ele>972.6</ele>
        <time>2019-06-29T06:04:37Z</time>
      </trkpt>
      <trkpt lat="45.58306" lon="6.13676">
        <ele>981.5</ele>
        <time>2019-06-29T06:05:31Z</time>
      </trkpt>
      <trkpt lat="45.58341" lon="6.13718">
        <ele>988</ele>
        <time>2019-06-29T06:06:26Z</time>
      </trkpt>
      <trkpt lat="45.58376" lon="6.13758">
        <ele>1002.5</ele>
        <time>2019-06-29T06:07:36Z</time>
      </trkpt>
      <trkpt lat="45.58397" lon="6.13815">
        <ele>1017.6</ele>
        <time>2019-06-29T06:08:42Z</time>
      </trkpt>
      <trkpt lat="45.58426" lon="6.13865">
        <ele>1021.3</ele>
        <time>2019-06-29T06:09:28Z</time>
      </trkpt>
      <trkpt lat="45.58457" lon="6.13912">
        <ele>1029.4</ele>
        <time>2019-06-29T06:10:19Z</time>
      </trkpt>
      <trkpt lat="45.58497" lon="6.13945">
        <ele>1026.7</ele>
        <time>2019-06-29T06:10:58Z</time>
      </trkpt>
      <trkpt lat="45.58526" lon="6.13995">
        <ele>1029.9</ele>
        <time>2019-06-29T06:11:46Z</time>
      </trkpt>
      <trkpt lat="45.58559" lon="6.14039">
        <ele>1030</ele>
        <time>2019-06-29T06:12:28Z</time>
      </trkpt>
      <trkpt lat="45.58592" lon="6.14085">
        <ele>1034.1</ele>
        <time>2019-06-29T06:13:14Z</time>
      </trkpt>
      <trkpt lat="45.58625" lon="6.14129">
        <ele>1038.7</ele>
        <time>2019-06-29T06:14:02Z</time>
      </trkpt>
      <trkpt lat="45.58659" lon="6.14171">
        <ele>1044.9</ele>
        <time>2019-06-29T06:14:49Z</time>
      </trkpt>
      <trkpt lat="45.58682" lon="6.14228">
        <ele>1043.4</ele>
        <time>2019-06-29T06:15:31Z</time>
      </trkpt>
      <trkpt lat="45.58726" lon="6.14247">
        <ele>1037.3</ele>
        <time>2019-06-29T06:16:30Z</time>
      </trkpt>
      <trkpt lat="45.58758" lon="6.14293">
        <ele>1036.4</ele>
        <time>2019-06-29T06:17:11Z</time>
      </trkpt>
      <trkpt lat="45.58778" lon="6.14351">
        <ele>1048.3</ele>
        <time>2019-06-29T06:18:00Z</time>
      </trkpt>
      <trkpt lat="45.5882" lon="6.14378">
        <ele>1053.4</ele>
        <time>2019-06-29T06:18:45Z</time>
      </trkpt>
      <trkpt lat="45.5885" lon="6.14426">
        <ele>1065.3</ele>
        <time>2019-06-29T06:19:32Z</time>
      </trkpt>
      <trkpt lat="45.58876" lon="6.14478">
        <ele>1049.8</ele>
        <time>2019-06-29T06:20:10Z</time>
      </trkpt>
      <trkpt lat="45.58901" lon="6.14534">
        <ele>1043.4</ele>
        <time>2019-06-29T06:20:57Z</time>
      </trkpt>
      <trkpt lat="45.58888" lon="6.14596">
        <ele>1042.8</ele>
        <time>2019-06-29T06:21:38Z</time>
      </trkpt>
      <trkpt lat="45.58929" lon="6.14624">
        <ele>1051.7</ele>
        <time>2019-06-29T06:22:38Z</time>
      </trkpt>
      <trkpt lat="45.5896" lon="6.14672">
        <ele>1056.1</ele>
        <time>2019-06-29T06:23:30Z</time>
      </trkpt>
      <trkpt lat="45.58978" lon="6.14731">
        <ele>1060.7</ele>
        <time>2019-06-29T06:24:27Z</time>
      </trkpt>
      <trkpt lat="45.58999" lon="6.14788">
        <ele>1077</ele>
        <time>2019-06-29T06:26:22Z</time>
      </trkpt>
      <trkpt lat="45.59044" lon="6.14792">
        <ele>1094.7</ele>
        <time>2019-06-29T06:27:50Z</time>
      </trkpt>
      <trkpt lat="45.59089" lon="6.14797">
        <ele>1110.2</ele>
        <time>2019-06-29T06:29:17Z</time>
      </trkpt>
      <trkpt lat="45.59134" lon="6.148">
        <ele>1124.7</ele>
        <time>2019-06-29T06:30:24Z</time>
      </trkpt>
      <trkpt lat="45.59177" lon="6.14819">
        <ele>1137.4</ele>
        <time>2019-06-29T06:32:22Z</time>
      </trkpt>
      <trkpt lat="45.59222" lon="6.14826">
        <ele>1152.2</ele>
        <time>2019-06-29T06:33:49Z</time>
      </trkpt>
      <trkpt lat="45.59253" lon="6.14873">
        <ele>1163.7</ele>
        <time>2019-06-29T06:35:00Z</time>
      </trkpt>
      <trkpt lat="45.59298" lon="6.14884">
        <ele>1178.7</ele>
        <time>2019-06-29T06:36:29Z</time>
      </trkpt>
      <trkpt lat="45.59342" lon="6.149">
        <ele>1187.1</ele>
        <time>2019-06-29T06:37:28Z</time>
      </trkpt>
      <trkpt lat="45.59387" lon="6.14905">
        <ele>1203.9</ele>
        <time>2019-06-29T06:38:53Z</time>
      </trkpt>
      <trkpt lat="45.59432" lon="6.14908">
        <ele>1219.2</ele>
        <time>2019-06-29T06:40:25Z</time>
      </trkpt>
      <trkpt lat="45.59477" lon="6.14899">
        <ele>1237.9</ele>
        <time>2019-06-29T06:42:38Z</time>
      </trkpt>
      <trkpt lat="45.59521" lon="6.14886">
        <ele>1249.8</ele>
        <time>2019-06-29T06:44:07Z</time>
      </trkpt>
      <trkpt lat="45.59564" lon="6.14905">
        <ele>1262.7</ele>
        <time>2019-06-29T06:45:19Z</time>
      </trkpt>
      <trkpt lat="45.59608" lon="6.14918">
        <ele>1271.4</ele>
        <time>2019-06-29T06:46:17Z</time>
      </trkpt>
      <trkpt lat="45.59653" lon="6.14911">
        <ele>1275.3</ele>
        <time>2019-06-29T06:47:03Z</time>
      </trkpt>
      <trkpt lat="45.59695" lon="6.14937">
        <ele>1272.2</ele>
        <time>2019-06-29T06:47:52Z</time>
      </trkpt>
      <trkpt lat="45.59738" lon="6.1496">
        <ele>1270.6</ele>
        <time>2019-06-29T06:48:32Z</time>
      </trkpt>
      <trkpt lat="45.59767" lon="6.15008">
        <ele>1273.9</ele>
        <time>2019-06-29T06:49:13Z</time>
      </trkpt>
      <trkpt lat="45.59807" lon="6.1504">
        <ele>1277.4</ele>
        <time>2019-06-29T06:49:57Z</time>
      </trkpt>
      <trkpt lat="45.5985" lon="6.15065">
        <ele>1280</ele>
        <time>2019-06-29T06:50:46Z</time>
      </trkpt>
      <trkpt lat="45.59891" lon="6.15093">
        <ele>1286.4</ele>
        <time>2019-06-29T06:51:38Z</time>
      </trkpt>
      <trkpt lat="45.59911" lon="6.1515">
        <ele>1290.5</ele>
        <time>2019-06-29T06:52:30Z</time>
      </trkpt>
      <trkpt lat="45.59954" lon="6.15172">
        <ele>1295.2</ele>
        <time>2019-06-29T06:53:30Z</time>
      </trkpt>
      <trkpt lat="45.59998" lon="6.15192">
        <ele>1306.4</ele>
        <time>2019-06-29T06:54:48Z</time>
      </trkpt>
      <trkpt lat="45.60037" lon="6.15226">
        <ele>1313.6</ele>
        <time>2019-06-29T06:55:45Z</time>
      </trkpt>
      <trkpt lat="45.60077" lon="6.15257">
        <ele>1314.5</ele>
        <time>2019-06-29T06:56:33Z</time>
      </trkpt>
      <trkpt lat="45.60108" lon="6.15305">
        <ele>1319.5</ele>
        <time>2019-06-29T06:57:26Z</time>
      </trkpt>
      <trkpt lat="45.60142" lon="6.15348">
        <ele>1329.1</ele>
        <time>2019-06-29T06:59:43Z</time>
      </trkpt>
      <trkpt lat="45.60164" lon="6.15405">
        <ele>1342.2</ele>
        <time>2019-06-29T07:00:48Z</time>
      </trkpt>
      <trkpt lat="45.60205" lon="6.15433">
        <ele>1352.3</ele>
        <time>2019-06-29T07:01:51Z</time>
      </trkpt>
      <trkpt lat="45.60245" lon="6.15465">
        <ele>1360.5</ele>
        <time>2019-06-29T07:02:42Z</time>
      </trkpt>
      <trkpt lat="45.60283" lon="6.15499">
        <ele>1364.9</ele>
        <time>2019-06-29T07:03:34Z</time>
      </trkpt>
      <trkpt lat="45.60317" lon="6.15541">
        <ele>1371.9</ele>
        <time>2019-06-29T07:04:55Z</time>
      </trkpt>
      <trkpt lat="45.60339" lon="6.15598">
        <ele>1384.5</ele>
        <time>2019-06-29T07:05:54Z</time>
      </trkpt>
      <trkpt lat="45.60375" lon="6.15636">
        <ele>1392.8</ele>
        <time>2019-06-29T07:06:59Z</time>
      </trkpt>
      <trkpt lat="45.60378" lon="6.15702">
        <ele>1399.2</ele>
        <time>2019-06-29T07:08:03Z</time>
      </trkpt>
      <trkpt lat="45.60398" lon="6.1576">
        <ele>1404.9</ele>
        <time>2019-06-29T07:08:45Z</time>
      </trkpt>
      <trkpt lat="45.60421" lon="6.15817">
        <ele>1399.9</ele>
        <time>2019-06-29T07:09:28Z</time>
      </trkpt>
      <trkpt lat="45.60452" lon="6.15864">
        <ele>1383.2</ele>
        <time>2019-06-29T07:10:05Z</time>
      </trkpt>
      <trkpt lat="45.60482" lon="6.15913">
        <ele>1371.4</ele>
        <time>2019-06-29T07:10:42Z</time>
      </trkpt>
      <trkpt lat="45.60499" lon="6.15974">
        <ele>1365.7</ele>
        <time>2019-06-29T07:11:21Z</time>
      </trkpt>
      <trkpt lat="45.60488" lon="6.16036">
        <ele>1356.7</ele>
        <time>2019-06-29T07:13:06Z</time>
      </trkpt>
      <trkpt lat="45.60478" lon="6.16099">
        <ele>1377</ele>
        <time>2019-06-29T07:14:57Z</time>
      </trkpt>
      <trkpt lat="45.60441" lon="6.16136">
        <ele>1388.5</ele>
        <time>2019-06-29T07:16:12Z</time>
      </trkpt>
      <trkpt lat="45.6041" lon="6.16183">
        <ele>1394.4</ele>
        <time>2019-06-29T07:17:12Z</time>
      </trkpt>
      <trkpt lat="45.60376" lon="6.16224">
        <ele>1399.6</ele>
        <time>2019-06-29T07:18:15Z</time>
      </trkpt>
      <trkpt lat="45.60333" lon="6.16245">
        <ele>1408.5</ele>
        <time>2019-06-29T07:19:15Z</time>
      </trkpt>
      <trkpt lat="45.60287" lon="6.16238">
        <ele>1409.7</ele>
        <time>2019-06-29T07:20:05Z</time>
      </trkpt>
      <trkpt lat="45.60242" lon="6.16241">
        <ele>1419.2</ele>
        <time>2019-06-29T07:20:58Z</time>
      </trkpt>
      <trkpt lat="45.602" lon="6.16266">
        <ele>1420.2</ele>
        <time>2019-06-29T07:21:58Z</time>
      </trkpt>
      <trkpt lat="45.60154" lon="6.16263">
        <ele>1424.2</ele>
        <time>2019-06-29T07:22:47Z</time>
      </trkpt>
      <trkpt lat="45.60111" lon="6.16286">
        <ele>1427.3</ele>
        <time>2019-06-29T07:23:37Z</time>
      </trkpt>
      <trkpt lat="45.60069" lon="6.1631">
        <ele>1428.6</ele>
        <time>2019-06-29T07:24:29Z</time>
      </trkpt>
      <trkpt lat="45.60113" lon="6.16325">
        <ele>1465.1</ele>
        <time>2019-06-29T07:27:26Z</time>
      </trkpt>
      <trkpt lat="45.60158" lon="6.16316">
        <ele>1474.4</ele>
        <time>2019-06-29T07:28:24Z</time>
      </trkpt>
      <trkpt lat="45.60203" lon="6.16327">
        <ele>1483</ele>
        <time>2019-06-29T07:29:21Z</time>
      </trkpt>
      <trkpt lat="45.60247" lon="6.16342">
        <ele>1489.6</ele>
        <time>2019-06-29T07:30:21Z</time>
      </trkpt>
      <trkpt lat="45.60291" lon="6.16355">
        <ele>1490</ele>
        <time>2019-06-29T07:31:14Z</time>
      </trkpt>
      <trkpt lat="45.60333" lon="6.1638">
        <ele>1494.7</ele>
        <time>2019-06-29T07:32:16Z</time>
      </trkpt>
      <trkpt lat="45.60292" lon="6.16408">
        <ele>1506</ele>
        <time>2019-06-29T07:34:41Z</time>
      </trkpt>
      <trkpt lat="45.60248" lon="6.1642">
        <ele>1515.3</ele>
        <time>2019-06-29T07:35:47Z</time>
      </trkpt>
      <trkpt lat="45.60205" lon="6.16437">
        <ele>1521.3</ele>
        <time>2019-06-29T07:36:52Z</time>
      </trkpt>
      <trkpt lat="45.60161" lon="6.16451">
        <ele>1533.7</ele>
        <time>2019-06-29T07:37:55Z</time>
      </trkpt>
      <trkpt lat="45.6012" lon="6.16481">
        <ele>1541.4</ele>
        <time>2019-06-29T07:38:52Z</time>
      </trkpt>
      <trkpt lat="45.60165" lon="6.16487">
        <ele>1589.1</ele>
        <time>2019-06-29T07:41:25Z</time>
      </trkpt>
      <trkpt lat="45.60208" lon="6.16505">
        <ele>1579.8</ele>
        <time>2019-06-29T07:42:19Z</time>
      </trkpt>
      <trkpt lat="45.60173" lon="6.16545">
        <ele>1591.6</ele>
        <time>2019-06-29T07:44:54Z</time>
      </trkpt>
      <trkpt lat="45.60131" lon="6.16571">
        <ele>1600.8</ele>
        <time>2019-06-29T07:45:54Z</time>
      </trkpt>
      <trkpt lat="45.60175" lon="6.16585">
        <ele>1617.7</ele>
        <time>2019-06-29T07:47:15Z</time>
      </trkpt>
      <trkpt lat="45.60209" lon="6.16628">
        <ele>1618.1</ele>
        <time>2019-06-29T07:48:13Z</time>
      </trkpt>
      <trkpt lat="45.60164" lon="6.1663">
        <ele>1630.9</ele>
        <time>2019-06-29T07:49:35Z</time>
      </trkpt>
      <trkpt lat="45.60173" lon="6.16694">
        <ele>1649.4</ele>
        <time>2019-06-29T07:56:12Z</time>
      </trkpt>
      <trkpt lat="45.6013" lon="6.16713">
        <ele>1664.1</ele>
        <time>2019-06-29T07:58:27Z</time>
      </trkpt>
      <trkpt lat="45.60163" lon="6.16757">
        <ele>1677.9</ele>
        <time>2019-06-29T08:00:03Z</time>
      </trkpt>
      <trkpt lat="45.6012" lon="6.16775">
        <ele>1691.6</ele>
        <time>2019-06-29T08:01:50Z</time>
      </trkpt>
      <trkpt lat="45.60079" lon="6.16802">
        <ele>1703.2</ele>
        <time>2019-06-29T08:03:37Z</time>
      </trkpt>
      <trkpt lat="45.6012" lon="6.16828">
        <ele>1716.6</ele>
        <time>2019-06-29T08:06:47Z</time>
      </trkpt>
      <trkpt lat="45.60083" lon="6.16864">
        <ele>1732</ele>
        <time>2019-06-29T08:08:33Z</time>
      </trkpt>
      <trkpt lat="45.60048" lon="6.16905">
        <ele>1741.4</ele>
        <time>2019-06-29T08:09:41Z</time>
      </trkpt>
      <trkpt lat="45.60094" lon="6.16907">
        <ele>1754.8</ele>
        <time>2019-06-29T08:11:37Z</time>
      </trkpt>
      <trkpt lat="45.60069" lon="6.16961">
        <ele>1769.9</ele>
        <time>2019-06-29T08:13:33Z</time>
      </trkpt>
      <trkpt lat="45.60059" lon="6.17024">
        <ele>1780.9</ele>
        <time>2019-06-29T08:15:54Z</time>
      </trkpt>
      <trkpt lat="45.60048" lon="6.17086">
        <ele>1789.9</ele>
        <time>2019-06-29T08:16:57Z</time>
      </trkpt>
      <trkpt lat="45.60088" lon="6.17056">
        <ele>1810.2</ele>
        <time>2019-06-29T08:19:19Z</time>
      </trkpt>
      <trkpt lat="45.60126" lon="6.17093">
        <ele>1822.3</ele>
        <time>2019-06-29T08:20:48Z</time>
      </trkpt>
      <trkpt lat="45.60153" lon="6.17144">
        <ele>1834.4</ele>
        <time>2019-06-29T08:22:03Z</time>
      </trkpt>
      <trkpt lat="45.60186" lon="6.17188">
        <ele>1842.6</ele>
        <time>2019-06-29T08:23:14Z</time>
      </trkpt>
      <trkpt lat="45.60213" lon="6.1724">
        <ele>1856.6</ele>
        <time>2019-06-29T08:24:44Z</time>
      </trkpt>
      <trkpt lat="45.60224" lon="6.17303">
        <ele>1885.1</ele>
        <time>2019-06-29T08:31:30Z</time>
      </trkpt>
      <trkpt lat="45.60241" lon="6.17362">
        <ele>1912</ele>
        <time>2019-06-29T08:35:19Z</time>
      </trkpt>
      <trkpt lat="45.60248" lon="6.17426">
        <ele>1947.5</ele>
        <time>2019-06-29T08:39:56Z</time>
      </trkpt>
      <trkpt lat="45.60207" lon="6.17454">
        <ele>1982.7</ele>
        <time>2019-06-29T08:49:52Z</time>
      </trkpt>
      <trkpt lat="45.60166" lon="6.17427">
        <ele>2004.8</ele>
        <time>2019-06-29T08:52:43Z</time>
      </trkpt>
      <trkpt lat="45.60128" lon="6.17392">
        <ele>2030.7</ele>
        <time>2019-06-29T08:56:42Z</time>
      </trkpt>
      <trkpt lat="45.60083" lon="6.17385">
        <ele>2033.4</ele>
        <time>2019-06-29T08:58:37Z</time>
      </trkpt>
      <trkpt lat="45.6004" lon="6.17364">
        <ele>2041.6</ele>
        <time>2019-06-29T09:06:31Z</time>
      </trkpt>
      <trkpt lat="45.60083" lon="6.17382">
        <ele>2038.4</ele>
        <time>2019-06-29T10:00:09Z</time>
      </trkpt>
      <trkpt lat="45.60128" lon="6.17392">
        <ele>2029.2</ele>
        <time>2019-06-29T10:01:47Z</time>
      </trkpt>
      <trkpt lat="45.60167" lon="6.17427">
        <ele>2001.7</ele>
        <time>2019-06-29T10:04:21Z</time>
      </trkpt>
      <trkpt lat="45.60208" lon="6.17454">
        <ele>1982</ele>
        <time>2019-06-29T10:06:41Z</time>
      </trkpt>
      <trkpt lat="45.60248" lon="6.17424">
        <ele>1953.3</ele>
        <time>2019-06-29T10:11:52Z</time>
      </trkpt>
      <trkpt lat="45.60241" lon="6.17361">
        <ele>1918.6</ele>
        <time>2019-06-29T10:15:12Z</time>
      </trkpt>
      <trkpt lat="45.60221" lon="6.17303">
        <ele>1892.5</ele>
        <time>2019-06-29T10:17:43Z</time>
      </trkpt>
      <trkpt lat="45.60208" lon="6.17241">
        <ele>1859.7</ele>
        <time>2019-06-29T10:20:31Z</time>
      </trkpt>
      <trkpt lat="45.60181" lon="6.17189">
        <ele>1844.2</ele>
        <time>2019-06-29T10:21:42Z</time>
      </trkpt>
      <trkpt lat="45.60148" lon="6.17145">
        <ele>1835.5</ele>
        <time>2019-06-29T10:22:41Z</time>
      </trkpt>
      <trkpt lat="45.60122" lon="6.17093">
        <ele>1824.5</ele>
        <time>2019-06-29T10:23:37Z</time>
      </trkpt>
      <trkpt lat="45.60085" lon="6.17055">
        <ele>1811.5</ele>
        <time>2019-06-29T10:24:34Z</time>
      </trkpt>
      <trkpt lat="45.60053" lon="6.17101">
        <ele>1799.1</ele>
        <time>2019-06-29T10:25:35Z</time>
      </trkpt>
      <trkpt lat="45.60055" lon="6.17035">
        <ele>1783.6</ele>
        <time>2019-06-29T10:27:00Z</time>
      </trkpt>
      <trkpt lat="45.60067" lon="6.16972">
        <ele>1772.1</ele>
        <time>2019-06-29T10:27:53Z</time>
      </trkpt>
      <trkpt lat="45.60095" lon="6.16922">
        <ele>1759.9</ele>
        <time>2019-06-29T10:28:49Z</time>
      </trkpt>
      <trkpt lat="45.60051" lon="6.1691">
        <ele>1748.7</ele>
        <time>2019-06-29T10:30:17Z</time>
      </trkpt>
      <trkpt lat="45.60082" lon="6.16863">
        <ele>1732.5</ele>
        <time>2019-06-29T10:31:22Z</time>
      </trkpt>
      <trkpt lat="45.60127" lon="6.16852">
        <ele>1727.8</ele>
        <time>2019-06-29T10:32:55Z</time>
      </trkpt>
      <trkpt lat="45.60091" lon="6.16812">
        <ele>1714.2</ele>
        <time>2019-06-29T10:33:59Z</time>
      </trkpt>
      <trkpt lat="45.60125" lon="6.16769">
        <ele>1692.9</ele>
        <time>2019-06-29T10:36:31Z</time>
      </trkpt>
      <trkpt lat="45.60171" lon="6.16777">
        <ele>1683.5</ele>
        <time>2019-06-29T10:37:20Z</time>
      </trkpt>
      <trkpt lat="45.60142" lon="6.16727">
        <ele>1673.8</ele>
        <time>2019-06-29T10:38:09Z</time>
      </trkpt>
      <trkpt lat="45.60187" lon="6.16716">
        <ele>1654.5</ele>
        <time>2019-06-29T10:39:35Z</time>
      </trkpt>
      <trkpt lat="45.60159" lon="6.16665">
        <ele>1647.2</ele>
        <time>2019-06-29T10:40:21Z</time>
      </trkpt>
      <trkpt lat="45.60199" lon="6.16635">
        <ele>1622.6</ele>
        <time>2019-06-29T10:42:04Z</time>
      </trkpt>
      <trkpt lat="45.60169" lon="6.16585">
        <ele>1608.3</ele>
        <time>2019-06-29T10:43:14Z</time>
      </trkpt>
      <trkpt lat="45.60124" lon="6.16574">
        <ele>1603.8</ele>
        <time>2019-06-29T10:43:55Z</time>
      </trkpt>
      <trkpt lat="45.60167" lon="6.16549">
        <ele>1599.6</ele>
        <time>2019-06-29T10:44:38Z</time>
      </trkpt>
      <trkpt lat="45.60211" lon="6.16532">
        <ele>1592.8</ele>
        <time>2019-06-29T10:45:21Z</time>
      </trkpt>
      <trkpt lat="45.6017" lon="6.16498">
        <ele>1565</ele>
        <time>2019-06-29T10:47:11Z</time>
      </trkpt>
      <trkpt lat="45.60125" lon="6.16497">
        <ele>1559.4</ele>
        <time>2019-06-29T10:47:53Z</time>
      </trkpt>
      <trkpt lat="45.60149" lon="6.16442">
        <ele>1555.3</ele>
        <time>2019-06-29T10:49:35Z</time>
      </trkpt>
      <trkpt lat="45.60194" lon="6.16426">
        <ele>1543.1</ele>
        <time>2019-06-29T10:50:22Z</time>
      </trkpt>
      <trkpt lat="45.60236" lon="6.16404">
        <ele>1545.6</ele>
        <time>2019-06-29T10:51:01Z</time>
      </trkpt>
      <trkpt lat="45.60282" lon="6.1639">
        <ele>1529.4</ele>
        <time>2019-06-29T10:51:46Z</time>
      </trkpt>
      <trkpt lat="45.60327" lon="6.16397">
        <ele>1510.4</ele>
        <time>2019-06-29T10:52:26Z</time>
      </trkpt>
      <trkpt lat="45.60292" lon="6.16354">
        <ele>1479.7</ele>
        <time>2019-06-29T10:54:36Z</time>
      </trkpt>
      <trkpt lat="45.60249" lon="6.16337">
        <ele>1480.5</ele>
        <time>2019-06-29T10:55:29Z</time>
      </trkpt>
      <trkpt lat="45.60204" lon="6.16326">
        <ele>1471.2</ele>
        <time>2019-06-29T10:56:06Z</time>
      </trkpt>
      <trkpt lat="45.60159" lon="6.16318">
        <ele>1460.9</ele>
        <time>2019-06-29T10:56:57Z</time>
      </trkpt>
      <trkpt lat="45.60114" lon="6.16327">
        <ele>1449</ele>
        <time>2019-06-29T10:57:39Z</time>
      </trkpt>
      <trkpt lat="45.60069" lon="6.16319">
        <ele>1449.9</ele>
        <time>2019-06-29T10:58:16Z</time>
      </trkpt>
      <trkpt lat="45.60102" lon="6.16274">
        <ele>1448.7</ele>
        <time>2019-06-29T10:59:59Z</time>
      </trkpt>
      <trkpt lat="45.60146" lon="6.16251">
        <ele>1445.6</ele>
        <time>2019-06-29T11:00:42Z</time>
      </trkpt>
      <trkpt lat="45.60192" lon="6.16252">
        <ele>1441.2</ele>
        <time>2019-06-29T11:01:18Z</time>
      </trkpt>
      <trkpt lat="45.60231" lon="6.1622">
        <ele>1451.8</ele>
        <time>2019-06-29T11:01:56Z</time>
      </trkpt>
      <trkpt lat="45.60276" lon="6.16224">
        <ele>1437.7</ele>
        <time>2019-06-29T11:02:33Z</time>
      </trkpt>
      <trkpt lat="45.60323" lon="6.16223">
        <ele>1436</ele>
        <time>2019-06-29T11:03:15Z</time>
      </trkpt>
      <trkpt lat="45.60366" lon="6.16204">
        <ele>1434.4</ele>
        <time>2019-06-29T11:03:59Z</time>
      </trkpt>
      <trkpt lat="45.60408" lon="6.16179">
        <ele>1411</ele>
        <time>2019-06-29T11:04:47Z</time>
      </trkpt>
      <trkpt lat="45.60443" lon="6.16137">
        <ele>1399.5</ele>
        <time>2019-06-29T11:05:29Z</time>
      </trkpt>
      <trkpt lat="45.60479" lon="6.16099">
        <ele>1383.2</ele>
        <time>2019-06-29T11:06:15Z</time>
      </trkpt>
      <trkpt lat="45.60488" lon="6.16036">
        <ele>1358.7</ele>
        <time>2019-06-29T11:07:11Z</time>
      </trkpt>
      <trkpt lat="45.60482" lon="6.15972">
        <ele>1362.3</ele>
        <time>2019-06-29T11:10:17Z</time>
      </trkpt>
      <trkpt lat="45.60463" lon="6.15913">
        <ele>1370.8</ele>
        <time>2019-06-29T11:11:01Z</time>
      </trkpt>
      <trkpt lat="45.60434" lon="6.15863">
        <ele>1380.4</ele>
        <time>2019-06-29T11:11:53Z</time>
      </trkpt>
      <trkpt lat="45.60399" lon="6.15822">
        <ele>1375.9</ele>
        <time>2019-06-29T11:12:32Z</time>
      </trkpt>
      <trkpt lat="45.60361" lon="6.15784">
        <ele>1372.4</ele>
        <time>2019-06-29T11:13:15Z</time>
      </trkpt>
      <trkpt lat="45.60325" lon="6.15745">
        <ele>1366.1</ele>
        <time>2019-06-29T11:13:55Z</time>
      </trkpt>
      <trkpt lat="45.60288" lon="6.15706">
        <ele>1360.8</ele>
        <time>2019-06-29T11:14:37Z</time>
      </trkpt>
      <trkpt lat="45.60255" lon="6.15661">
        <ele>1350.8</ele>
        <time>2019-06-29T11:15:16Z</time>
      </trkpt>
      <trkpt lat="45.60219" lon="6.1562">
        <ele>1338</ele>
        <time>2019-06-29T11:15:59Z</time>
      </trkpt>
      <trkpt lat="45.60195" lon="6.15565">
        <ele>1324.9</ele>
        <time>2019-06-29T11:16:51Z</time>
      </trkpt>
      <trkpt lat="45.60161" lon="6.15522">
        <ele>1316.2</ele>
        <time>2019-06-29T11:18:08Z</time>
      </trkpt>
      <trkpt lat="45.60139" lon="6.15465">
        <ele>1311.8</ele>
        <time>2019-06-29T11:19:02Z</time>
      </trkpt>
      <trkpt lat="45.60125" lon="6.15403">
        <ele>1320.2</ele>
        <time>2019-06-29T11:19:51Z</time>
      </trkpt>
      <trkpt lat="45.60129" lon="6.15337">
        <ele>1322.9</ele>
        <time>2019-06-29T11:21:06Z</time>
      </trkpt>
      <trkpt lat="45.60099" lon="6.15289">
        <ele>1316.2</ele>
        <time>2019-06-29T11:21:42Z</time>
      </trkpt>
      <trkpt lat="45.60065" lon="6.15244">
        <ele>1312.6</ele>
        <time>2019-06-29T11:22:31Z</time>
      </trkpt>
      <trkpt lat="45.60024" lon="6.15214">
        <ele>1311.9</ele>
        <time>2019-06-29T11:23:15Z</time>
      </trkpt>
      <trkpt lat="45.59984" lon="6.15183">
        <ele>1306.4</ele>
        <time>2019-06-29T11:23:53Z</time>
      </trkpt>
      <trkpt lat="45.59942" lon="6.1516">
        <ele>1289.2</ele>
        <time>2019-06-29T11:24:41Z</time>
      </trkpt>
      <trkpt lat="45.59912" lon="6.1511">
        <ele>1285.8</ele>
        <time>2019-06-29T11:25:38Z</time>
      </trkpt>
      <trkpt lat="45.59873" lon="6.15077">
        <ele>1291.1</ele>
        <time>2019-06-29T11:26:04Z</time>
      </trkpt>
      <trkpt lat="45.5983" lon="6.15053">
        <ele>1285.1</ele>
        <time>2019-06-29T11:26:51Z</time>
      </trkpt>
      <trkpt lat="45.59791" lon="6.15022">
        <ele>1284.7</ele>
        <time>2019-06-29T11:27:33Z</time>
      </trkpt>
      <trkpt lat="45.59755" lon="6.14983">
        <ele>1276.4</ele>
        <time>2019-06-29T11:28:08Z</time>
      </trkpt>
      <trkpt lat="45.59716" lon="6.14949">
        <ele>1271.1</ele>
        <time>2019-06-29T11:28:43Z</time>
      </trkpt>
      <trkpt lat="45.59677" lon="6.14916">
        <ele>1270.2</ele>
        <time>2019-06-29T11:29:23Z</time>
      </trkpt>
      <trkpt lat="45.59631" lon="6.14913">
        <ele>1268.1</ele>
        <time>2019-06-29T11:30:07Z</time>
      </trkpt>
      <trkpt lat="45.59585" lon="6.14919">
        <ele>1267.8</ele>
        <time>2019-06-29T11:30:46Z</time>
      </trkpt>
      <trkpt lat="45.59542" lon="6.14897">
        <ele>1254.8</ele>
        <time>2019-06-29T11:32:01Z</time>
      </trkpt>
      <trkpt lat="45.59497" lon="6.14891">
        <ele>1245.7</ele>
        <time>2019-06-29T11:32:45Z</time>
      </trkpt>
      <trkpt lat="45.59456" lon="6.14917">
        <ele>1229.6</ele>
        <time>2019-06-29T11:33:43Z</time>
      </trkpt>
      <trkpt lat="45.59412" lon="6.14901">
        <ele>1213</ele>
        <time>2019-06-29T11:34:51Z</time>
      </trkpt>
      <trkpt lat="45.59366" lon="6.14896">
        <ele>1199.5</ele>
        <time>2019-06-29T11:35:52Z</time>
      </trkpt>
      <trkpt lat="45.59321" lon="6.14889">
        <ele>1182.7</ele>
        <time>2019-06-29T11:36:52Z</time>
      </trkpt>
      <trkpt lat="45.59276" lon="6.14876">
        <ele>1174.6</ele>
        <time>2019-06-29T11:37:36Z</time>
      </trkpt>
      <trkpt lat="45.59237" lon="6.14843">
        <ele>1160.6</ele>
        <time>2019-06-29T11:38:43Z</time>
      </trkpt>
      <trkpt lat="45.59197" lon="6.14808">
        <ele>1145</ele>
        <time>2019-06-29T11:39:31Z</time>
      </trkpt>
      <trkpt lat="45.59152" lon="6.14801">
        <ele>1126.1</ele>
        <time>2019-06-29T11:40:49Z</time>
      </trkpt>
      <trkpt lat="45.59107" lon="6.14802">
        <ele>1119.7</ele>
        <time>2019-06-29T11:41:37Z</time>
      </trkpt>
      <trkpt lat="45.59062" lon="6.14789">
        <ele>1104.1</ele>
        <time>2019-06-29T11:42:29Z</time>
      </trkpt>
      <trkpt lat="45.59017" lon="6.14786">
        <ele>1086.7</ele>
        <time>2019-06-29T11:43:30Z</time>
      </trkpt>
      <trkpt lat="45.58984" lon="6.14741">
        <ele>1061.8</ele>
        <time>2019-06-29T11:45:02Z</time>
      </trkpt>
      <trkpt lat="45.58966" lon="6.14682">
        <ele>1058.5</ele>
        <time>2019-06-29T11:46:01Z</time>
      </trkpt>
      <trkpt lat="45.58942" lon="6.14627">
        <ele>1054.5</ele>
        <time>2019-06-29T11:46:47Z</time>
      </trkpt>
      <trkpt lat="45.58897" lon="6.14612">
        <ele>1054.6</ele>
        <time>2019-06-29T11:47:32Z</time>
      </trkpt>
      <trkpt lat="45.58908" lon="6.1455">
        <ele>1044</ele>
        <time>2019-06-29T11:48:16Z</time>
      </trkpt>
      <trkpt lat="45.5889" lon="6.14489">
        <ele>1046.2</ele>
        <time>2019-06-29T11:49:02Z</time>
      </trkpt>
      <trkpt lat="45.58871" lon="6.14431">
        <ele>1049.7</ele>
        <time>2019-06-29T11:49:46Z</time>
      </trkpt>
      <trkpt lat="45.58838" lon="6.14384">
        <ele>1050.3</ele>
        <time>2019-06-29T11:50:23Z</time>
      </trkpt>
      <trkpt lat="45.58796" lon="6.14363">
        <ele>1052.5</ele>
        <time>2019-06-29T11:51:02Z</time>
      </trkpt>
      <trkpt lat="45.58771" lon="6.14309">
        <ele>1046</ele>
        <time>2019-06-29T11:51:46Z</time>
      </trkpt>
      <trkpt lat="45.58742" lon="6.14258">
        <ele>1037.1</ele>
        <time>2019-06-29T11:52:18Z</time>
      </trkpt>
      <trkpt lat="45.58698" lon="6.14238">
        <ele>1036.4</ele>
        <time>2019-06-29T11:52:56Z</time>
      </trkpt>
      <trkpt lat="45.58667" lon="6.14191">
        <ele>1040</ele>
        <time>2019-06-29T11:53:40Z</time>
      </trkpt>
      <trkpt lat="45.58633" lon="6.14145">
        <ele>1041</ele>
        <time>2019-06-29T11:54:19Z</time>
      </trkpt>
      <trkpt lat="45.58601" lon="6.141">
        <ele>1036.3</ele>
        <time>2019-06-29T11:54:56Z</time>
      </trkpt>
      <trkpt lat="45.58572" lon="6.14048">
        <ele>1036.3</ele>
        <time>2019-06-29T11:55:39Z</time>
      </trkpt>
      <trkpt lat="45.58541" lon="6.14001">
        <ele>1044</ele>
        <time>2019-06-29T11:56:16Z</time>
      </trkpt>
      <trkpt lat="45.58511" lon="6.1395">
        <ele>1042.4</ele>
        <time>2019-06-29T11:56:54Z</time>
      </trkpt>
      <trkpt lat="45.58473" lon="6.13912">
        <ele>1034.8</ele>
        <time>2019-06-29T11:57:28Z</time>
      </trkpt>
      <trkpt lat="45.58437" lon="6.13871">
        <ele>1034.9</ele>
        <time>2019-06-29T11:58:09Z</time>
      </trkpt>
      <trkpt lat="45.58409" lon="6.13818">
        <ele>1025.3</ele>
        <time>2019-06-29T11:58:47Z</time>
      </trkpt>
      <trkpt lat="45.58383" lon="6.13764">
        <ele>1018.4</ele>
        <time>2019-06-29T11:59:27Z</time>
      </trkpt>
      <trkpt lat="45.58346" lon="6.13726">
        <ele>998.4</ele>
        <time>2019-06-29T12:00:17Z</time>
      </trkpt>
      <trkpt lat="45.58316" lon="6.13677">
        <ele>994.5</ele>
        <time>2019-06-29T12:01:10Z</time>
      </trkpt>
      <trkpt lat="45.58281" lon="6.13636">
        <ele>986.5</ele>
        <time>2019-06-29T12:01:59Z</time>
      </trkpt>
      <trkpt lat="45.58244" lon="6.13596">
        <ele>973.6</ele>
        <time>2019-06-29T12:02:50Z</time>
      </trkpt>
      <trkpt lat="45.5829" lon="6.1359">
        <ele>959.9</ele>
        <time>2019-06-29T12:03:58Z</time>
      </trkpt>
      <trkpt lat="45.58334" lon="6.13608">
        <ele>955.4</ele>
        <time>2019-06-29T12:04:38Z</time>
      </trkpt>
      <trkpt lat="45.5834" lon="6.13613">
        <ele>958.1</ele>
        <time>2019-06-29T12:05:30Z</time>
      </trkpt>
    </trkseg>
  </trk>
</gpx>